Time;durP1;ratioP1;P1;durP2;ratioP2;P2;SDS_P1;SDS_P2;PMS_P1;PMS_P2;Temp;Humidity;BMP_temperature;BMP_pressure;BME280_temperature;BME280_humidity;BME280_pressure;Samples;Min_cycle;Max_cycle;Signal;HPM_P1;HPM_P2
2023/01/14 00:02:17;;;;;;;11.17;1.13;;;;;;;22.82;61.79;99228.34;7310960;19;129640;-38
2023/01/14 00:04:42;;;;;;;26.83;3.10;;;;;;;22.81;61.65;99234.53;7311382;19;129235;-38
2023/01/14 00:07:08;;;;;;;14.30;1.57;;;;;;;22.80;60.23;99232.91;7310229;19;129363;-40
2023/01/14 00:09:33;;;;;;;19.97;2.10;;;;;;;22.86;61.08;99251.47;7311502;19;129419;-40
2023/01/14 00:11:58;;;;;;;15.83;2.03;;;;;;;22.90;61.84;99246.72;7309139;19;129274;-37
2023/01/14 00:14:29;;;;;;;14.35;1.50;;;;;;;22.89;61.25;99240.66;7312119;19;129056;-38
2023/01/14 00:16:55;;;;;;;21.02;2.33;;;;;;;22.89;61.30;99253.75;7310144;19;129602;-40
2023/01/14 00:19:22;;;;;;;26.88;2.50;;;;;;;22.90;61.40;99251.97;7313027;19;129560;-41
2023/01/14 00:21:48;;;;;;;4.13;0.65;;;;;;;22.87;61.20;99249.66;7309104;19;129362;-38
2023/01/14 00:24:15;;;;;;;17.73;2.15;;;;;;;22.89;61.27;99247.72;7311639;19;129102;-37
2023/01/14 00:26:42;;;;;;;34.75;3.67;;;;;;;22.92;61.48;99248.19;7309356;19;129413;-39
2023/01/14 00:29:16;;;;;;;18.17;1.88;;;;;;;22.94;61.49;99255.94;7309107;19;128992;-38
2023/01/14 00:31:43;;;;;;;15.10;1.70;;;;;;;22.92;60.81;99255.25;7309996;19;130945;-39
2023/01/14 00:34:09;;;;;;;13.25;1.60;;;;;;;22.89;61.25;99255.59;7311107;19;128976;-39
2023/01/14 00:36:35;;;;;;;22.05;2.60;;;;;;;22.92;61.48;99250.03;7310301;19;129336;-38
2023/01/14 00:39:00;;;;;;;24.57;2.67;;;;;;;22.94;61.71;99253.31;7311520;19;129063;-38
2023/01/14 00:41:26;;;;;;;12.73;1.42;;;;;;;22.95;61.03;99257.56;7310852;19;130704;-40
2023/01/14 00:43:54;;;;;;;16.30;1.70;;;;;;;22.93;61.29;99262.97;7310400;19;129481;-40
2023/01/14 00:46:29;;;;;;;14.00;1.55;;;;;;;22.94;61.81;99266.44;7310937;19;129254;-40
2023/01/14 00:48:55;;;;;;;19.63;2.10;;;;;;;22.95;61.53;99262.81;7308018;19;130406;-38
2023/01/14 00:51:21;;;;;;;20.17;2.17;;;;;;;22.94;61.28;99261.19;7310638;19;130999;-38
2023/01/14 00:53:47;;;;;;;18.80;2.17;;;;;;;22.95;61.19;99263.63;7309537;19;129210;-39
2023/01/14 00:56:14;;;;;;;24.63;2.47;;;;;;;22.97;61.01;99266.09;7310381;19;129606;-40
2023/01/14 00:58:40;;;;;;;13.90;1.42;;;;;;;22.95;61.11;99268.06;7309459;19;129206;-40
2023/01/14 01:01:05;;;;;;;27.80;2.67;;;;;;;22.97;61.13;99271.34;7310612;19;129801;-38
2023/01/14 01:03:31;;;;;;;14.20;1.60;;;;;;;22.90;60.82;99254.59;7309654;19;129703;-38
2023/01/14 01:05:56;;;;;;;17.90;2.00;;;;;;;22.97;60.60;99268.72;7316452;19;129282;-39
2023/01/14 01:08:23;;;;;;;20.13;1.88;;;;;;;22.86;61.42;99258.50;7314481;19;129584;-39
2023/01/14 01:10:51;;;;;;;16.52;1.92;;;;;;;22.87;61.25;99257.53;7317071;19;131041;-38
2023/01/14 01:13:17;;;;;;;10.90;1.33;;;;;;;22.96;60.82;99278.38;7317004;19;128796;-40
2023/01/14 01:15:43;;;;;;;13.65;1.35;;;;;;;22.98;60.76;99283.47;7317516;19;129460;-40
2023/01/14 01:18:10;;;;;;;24.20;2.40;;;;;;;22.95;60.99;99282.00;7316170;19;128972;-39
2023/01/14 01:20:36;;;;;;;13.90;1.65;;;;;;;22.98;61.08;99283.47;7317380;19;129009;-40
2023/01/14 01:23:02;;;;;;;23.10;2.58;;;;;;;22.98;61.17;99288.72;7314402;19;129586;-39
2023/01/14 01:25:28;;;;;;;10.87;1.37;;;;;;;22.99;60.86;99287.75;7314055;19;129667;-41
2023/01/14 01:27:54;;;;;;;24.48;2.33;;;;;;;22.98;61.33;99294.78;7315927;19;130147;-40
2023/01/14 01:30:20;;;;;;;8.00;1.02;;;;;;;23.00;61.47;99295.47;7315762;19;129363;-38
2023/01/14 01:32:45;;;;;;;10.67;1.27;;;;;;;22.99;60.88;99291.19;7314242;19;129726;-40
2023/01/14 01:35:11;;;;;;;26.10;3.30;;;;;;;22.97;60.81;99292.31;7314970;19;128887;-36
2023/01/14 01:37:36;;;;;;;23.95;2.30;;;;;;;22.97;61.42;99302.81;7315099;19;129240;-36
2023/01/14 01:40:03;;;;;;;4.50;0.67;;;;;;;22.94;61.02;99290.81;7315522;19;129294;-39
2023/01/14 01:42:33;;;;;;;28.10;2.75;;;;;;;22.93;60.99;99307.53;7314773;19;131561;-40
2023/01/14 01:45:28;;;;;;;19.50;2.28;;;;;;;22.94;61.17;99303.13;7315288;19;129587;-41
2023/01/14 01:48:17;;;;;;;13.25;1.48;;;;;;;22.92;61.39;99308.50;7314600;19;129499;-37
2023/01/14 01:50:45;;;;;;;13.43;1.38;;;;;;;22.91;61.20;99308.66;7314702;19;129233;-38
2023/01/14 01:53:11;;;;;;;16.00;1.73;;;;;;;22.90;61.23;99307.03;7316633;19;129311;-38
2023/01/14 01:55:40;;;;;;;16.07;1.83;;;;;;;22.88;61.37;99308.97;7314635;19;130157;-40
2023/01/14 01:58:08;;;;;;;15.27;1.80;;;;;;;22.89;60.76;99310.63;7316771;19;130236;-38
2023/01/14 02:00:33;;;;;;;8.77;1.13;;;;;;;22.79;61.14;99291.56;7314675;19;129986;-41
2023/01/14 02:03:06;;;;;;;15.83;1.90;;;;;;;22.87;61.08;99302.09;7313508;19;129380;-38
2023/01/14 02:05:32;;;;;;;20.20;1.98;;;;;;;22.86;61.45;99313.53;7315223;19;129079;-37
2023/01/14 02:07:59;;;;;;;14.27;1.43;;;;;;;22.84;61.19;99312.91;7315052;19;129246;-40
2023/01/14 02:10:39;;;;;;;;;;;;;;;22.87;61.09;99299.47;7314856;19;129495;-38
2023/01/14 02:13:18;;;;;;;16.02;1.95;;;;;;;22.88;61.92;99314.22;7315251;19;129916;-38
2023/01/14 02:16:11;;;;;;;11.15;1.25;;;;;;;22.84;61.37;99324.19;7312533;19;128964;-39
2023/01/14 02:18:52;;;;;;;17.20;1.98;;;;;;;22.85;61.76;99319.78;7314959;19;130009;-39
2023/01/14 02:21:25;;;;;;;14.75;1.60;;;;;;;22.82;61.40;99327.94;7313684;19;130115;-41
2023/01/14 02:24:11;;;;;;;24.15;2.45;;;;;;;22.81;61.89;99334.16;7315519;19;129590;-40
2023/01/14 02:27:12;;;;;;;20.95;2.42;;;;;;;22.71;61.58;99317.72;7313052;19;129490;-35
2023/01/14 02:29:46;;;;;;;18.10;1.80;;;;;;;22.82;61.09;99339.25;7315157;19;129205;-42
2023/01/14 02:32:28;;;;;;;27.77;2.67;;;;;;;22.81;61.48;99350.69;7312156;19;129575;-41
2023/01/14 02:35:08;;;;;;;28.98;2.83;;;;;;;22.80;61.49;99343.84;7315200;19;130310;-39
2023/01/14 02:37:34;;;;;;;32.70;3.17;;;;;;;22.79;61.00;99347.41;7312345;19;129652;-38
2023/01/14 02:40:04;;;;;;;14.27;1.87;;;;;;;22.77;61.43;99348.56;7314881;19;130547;-38
2023/01/14 02:45:33;;;;;;;17.13;1.88;;;;;;;22.75;61.86;99342.63;7314977;19;128960;-40
2023/01/14 02:48:02;;;;;;;14.13;1.47;;;;;;;22.74;61.51;99364.59;7313641;19;128980;-38
2023/01/14 02:50:28;;;;;;;8.25;1.13;;;;;;;22.78;60.93;99365.91;7314808;19;129423;-41
2023/01/14 02:52:53;;;;;;;24.73;2.38;;;;;;;22.77;61.76;99369.53;7312566;19;129692;-37
2023/01/14 02:55:50;;;;;;;17.07;2.00;;;;;;;22.80;62.27;99374.44;7313974;19;128860;-40
2023/01/14 02:58:24;;;;;;;13.05;1.40;;;;;;;22.76;61.71;99363.44;7314476;19;129691;-41
2023/01/14 03:01:15;;;;;;;14.95;1.63;;;;;;;22.75;61.95;99366.22;7314706;19;129479;-41
2023/01/14 03:03:52;;;;;;;14.18;1.65;;;;;;;22.73;62.04;99362.91;7313592;19;132536;-39
2023/01/14 03:06:36;;;;;;;27.45;2.92;;;;;;;22.74;62.17;99364.59;7312270;19;129832;-38
2023/01/14 03:09:15;;;;;;;12.63;1.52;;;;;;;22.74;62.04;99364.59;7311247;19;129847;-41
2023/01/14 03:11:48;;;;;;;17.80;1.95;;;;;;;22.73;62.08;99368.16;7312958;19;129662;-38
2023/01/14 03:14:30;;;;;;;20.55;2.05;;;;;;;22.60;62.38;99352.84;7311703;19;129601;-37
2023/01/14 03:17:04;;;;;;;21.40;2.20;;;;;;;22.73;61.82;99376.03;7312601;19;129680;-39
2023/01/14 03:19:35;;;;;;;12.95;1.60;;;;;;;22.68;62.08;99380.91;7312859;19;129629;-40
2023/01/14 03:22:03;;;;;;;16.48;2.05;;;;;;;22.70;62.17;99379.78;7312847;19;130897;-39
2023/01/14 03:24:35;;;;;;;16.33;1.88;;;;;;;22.64;61.66;99371.72;7313655;19;130675;-38
2023/01/14 03:27:08;;;;;;;15.75;1.55;;;;;;;22.71;61.65;99384.03;7311924;19;129075;-38
2023/01/14 03:29:40;;;;;;;18.42;1.85;;;;;;;22.70;61.67;99386.81;7309541;19;128889;-41
2023/01/14 03:32:10;;;;;;;29.95;3.17;;;;;;;22.62;61.63;99371.03;7311540;19;129064;-38
2023/01/14 03:34:42;;;;;;;13.82;1.50;;;;;;;22.67;61.82;99385.34;7313296;19;129142;-36
2023/01/14 03:37:11;;;;;;;14.77;1.70;;;;;;;22.68;61.56;99380.91;7312855;19;128726;-39
2023/01/14 03:39:42;;;;;;;5.15;0.68;;;;;;;22.70;62.17;99394.69;7313832;19;129042;-39
2023/01/14 03:42:18;;;;;;;25.05;2.88;;;;;;;22.69;61.86;99387.81;7309795;19;129286;-36
2023/01/14 03:44:58;;;;;;;21.67;2.22;;;;;;;22.66;61.87;99388.13;7313156;19;129655;-37
2023/01/14 03:47:27;;;;;;;17.05;2.13;;;;;;;22.65;61.56;99391.69;7310667;19;128879;-40
2023/01/14 03:49:52;;;;;;;7.90;0.93;;;;;;;22.67;61.69;99400.22;7314146;19;128933;-38
2023/01/14 03:52:47;;;;;;;21.23;2.40;;;;;;;22.68;62.07;99391.38;7308855;19;130116;-37
2023/01/14 03:55:35;;;;;;;25.15;2.95;;;;;;;22.67;62.29;99401.06;7310024;19;129582;-36
2023/01/14 03:58:12;;;;;;;13.35;1.40;;;;;;;22.66;61.84;99403.84;7311995;19;129271;-38
2023/01/14 04:00:40;;;;;;;13.40;1.40;;;;;;;;;;7312926;19;129515;-38
2023/01/14 04:03:12;;;;;;;20.73;2.25;;;;;;;22.67;61.92;99400.22;7310767;19;130411;-39
2023/01/14 04:05:38;;;;;;;29.08;3.17;;;;;;;22.54;61.52;99391.94;7311064;19;129401;-40
2023/01/14 04:08:06;;;;;;;21.50;2.28;;;;;;;22.52;62.18;99391.22;7310916;19;129157;-41
2023/01/14 04:10:31;;;;;;;2.72;0.40;;;;;;;22.62;61.77;99407.72;7312209;19;130966;-41
2023/01/14 04:15:40;;;;;;;15.68;1.92;;;;;;;22.56;61.52;99403.09;7310920;19;128968;-36
2023/01/14 04:18:06;;;;;;;22.63;2.40;;;;;;;22.66;61.48;99424.81;7310970;19;128913;-40
2023/01/14 04:20:31;;;;;;;14.90;1.50;;;;;;;22.66;60.99;99424.81;7311641;19;129022;-38
2023/01/14 04:22:57;;;;;;;12.80;1.43;;;;;;;22.63;61.50;99425.06;7307891;19;129528;-38
2023/01/14 04:25:22;;;;;;;19.50;2.30;;;;;;;22.57;61.47;99409.97;7311242;19;129098;-40
2023/01/14 04:27:48;;;;;;;40.20;4.23;;;;;;;22.62;61.27;99433.91;7309752;19;129334;-39
2023/01/14 04:30:13;;;;;;;18.27;2.13;;;;;;;22.63;61.59;99419.84;7310980;19;130327;-37
2023/01/14 04:32:39;;;;;;;10.83;1.40;;;;;;;22.66;61.70;99419.56;7308140;19;129716;-39
2023/01/14 04:35:04;;;;;;;26.00;2.87;;;;;;;22.50;61.03;99429.84;7309770;19;129380;-40
2023/01/14 04:37:30;;;;;;;17.40;1.88;;;;;;;22.24;59.89;99423.69;7311342;19;128894;-37
2023/01/14 04:39:55;;;;;;;13.17;1.27;;;;;;;22.18;60.44;99416.44;7313929;19;129554;-41
2023/01/14 04:42:27;;;;;;;27.00;3.03;;;;;;;22.30;60.24;99420.47;7315404;19;130299;-35
2023/01/14 04:44:57;;;;;;;22.02;2.50;;;;;;;22.50;59.88;99409.72;7316676;19;129498;-38
2023/01/14 04:47:23;;;;;;;19.77;2.10;;;;;;;22.79;58.92;99417.38;7317424;19;128824;-39
2023/01/14 04:49:49;;;;;;;13.60;1.38;;;;;;;22.99;58.23;99421.47;7315633;19;129483;-40
2023/01/14 04:52:14;;;;;;;12.87;1.50;;;;;;;23.07;57.67;99424.16;7316388;19;129657;-38
2023/01/14 04:54:40;;;;;;;19.52;1.95;;;;;;;23.11;57.67;99423.69;7317523;19;129685;-39
2023/01/14 04:57:05;;;;;;;19.53;1.97;;;;;;;23.16;57.31;99412.72;7317150;19;130061;-38
2023/01/14 04:59:30;;;;;;;17.10;1.53;;;;;;;23.23;57.30;99424.25;7316489;19;129983;-38
2023/01/14 05:01:56;;;;;;;12.73;1.40;;;;;;;23.16;57.67;99413.56;7316737;19;129273;-40
2023/01/14 05:04:22;;;;;;;26.73;2.70;;;;;;;23.26;56.88;99418.69;7313815;19;130385;-37
2023/01/14 05:06:47;;;;;;;16.97;1.77;;;;;;;23.29;57.14;99428.09;7316156;19;129220;-38
2023/01/14 05:09:13;;;;;;;29.38;2.85;;;;;;;23.33;57.51;99429.41;7315768;19;129526;-40
2023/01/14 05:11:38;;;;;;;2.15;0.40;;;;;;;23.40;57.39;99431.28;7314377;19;129428;-40
2023/01/14 05:14:03;;;;;;;33.97;3.55;;;;;;;23.38;57.24;99427.97;7316862;19;129510;-38
2023/01/14 05:16:29;;;;;;;13.77;1.50;;;;;;;23.46;57.26;99425.41;7315254;19;129743;-35
2023/01/14 05:18:54;;;;;;;12.87;1.33;;;;;;;23.47;56.59;99427.03;7317608;19;129113;-39
2023/01/14 05:21:20;;;;;;;29.60;3.53;;;;;;;23.51;56.79;99430.19;7313672;19;129134;-40
2023/01/14 05:23:46;;;;;;;19.98;2.00;;;;;;;23.47;57.35;99429.66;7314877;19;129606;-38
2023/01/14 05:26:12;;;;;;;20.67;2.42;;;;;;;23.55;56.55;99427.06;7316769;19;129027;-36
2023/01/14 05:28:37;;;;;;;17.23;1.83;;;;;;;23.50;57.26;99437.25;7312653;19;129587;-40
2023/01/14 05:31:03;;;;;;;6.75;0.95;;;;;;;23.56;57.29;99439.25;7316267;19;129638;-41
2023/01/14 05:33:29;;;;;;;24.63;2.53;;;;;;;23.53;56.47;99436.94;7315288;19;131081;-41
2023/01/14 05:35:59;;;;;;;13.93;1.37;;;;;;;23.59;56.89;99436.28;7316402;19;129571;-36
2023/01/14 05:38:25;;;;;;;14.07;1.55;;;;;;;23.52;57.05;99451.00;7313425;19;130467;-39
2023/01/14 05:40:51;;;;;;;18.63;1.75;;;;;;;23.48;57.14;99443.63;7315309;19;130305;-40
2023/01/14 05:46:08;;;;;;;22.23;2.28;;;;;;;23.27;57.38;99451.81;7316396;19;129891;-38
2023/01/14 05:48:34;;;;;;;14.27;1.52;;;;;;;23.18;58.45;99460.59;7313149;19;130243;-40
2023/01/14 05:51:01;;;;;;;21.10;2.00;;;;;;;23.07;58.40;99450.38;7313726;19;129006;-39
2023/01/14 05:53:29;;;;;;;;;;;;;;;23.00;58.70;99455.41;7312588;19;129809;-38
2023/01/14 05:55:56;;;;;;;25.50;2.50;;;;;;;23.01;58.78;99450.97;7315446;19;129431;-37
2023/01/14 05:58:21;;;;;;;16.63;1.58;;;;;;;23.03;58.52;99459.50;7313593;19;129034;-38
2023/01/14 06:06:25;;;;;;;21.23;2.00;;;;;;;23.17;57.70;99451.09;7315681;19;129364;-39
2023/01/14 06:08:59;;;;;;;29.48;3.10;;;;;;;23.16;58.07;99450.28;7310761;19;129375;-40
2023/01/14 06:11:26;;;;;;;18.48;1.88;;;;;;;23.27;57.75;99456.28;7315078;19;129644;-38
2023/01/14 06:13:56;;;;;;;31.13;3.05;;;;;;;23.34;57.89;99455.50;7313171;19;130353;-39
2023/01/14 06:16:21;;;;;;;14.27;1.55;;;;;;;23.47;56.96;99461.16;7314235;19;129299;-38
2023/01/14 06:18:47;;;;;;;14.20;1.43;;;;;;;23.51;57.59;99461.66;7315239;19;129087;-38
2023/01/14 06:21:18;;;;;;;18.48;1.92;;;;;;;23.55;57.31;99455.13;7313361;19;130288;-40
2023/01/14 06:23:45;;;;;;;20.73;2.00;;;;;;;23.58;57.15;99466.16;7312898;19;129300;-38
2023/01/14 06:26:15;;;;;;;20.42;2.30;;;;;;;23.56;57.14;99460.22;7310996;19;129199;-39
2023/01/14 06:28:41;;;;;;;17.75;1.92;;;;;;;23.70;57.00;99458.84;7313109;19;129609;-39
2023/01/14 06:31:14;;;;;;;23.00;2.63;;;;;;;23.63;56.82;99460.44;7306797;19;131530;-39
2023/01/14 06:33:40;;;;;;;21.45;2.08;;;;;;;23.66;56.63;99458.31;7312521;19;129519;-41
2023/01/14 06:36:08;;;;;;;19.55;2.13;;;;;;;23.50;57.06;99452.16;7309854;19;129302;-40
2023/01/14 06:38:33;;;;;;;20.23;1.95;;;;;;;23.50;56.85;99460.88;7313836;19;129078;-41
2023/01/14 06:41:00;;;;;;;15.70;1.50;;;;;;;23.41;57.58;99479.31;7314129;19;129214;-40
2023/01/14 06:43:26;;;;;;;;;;;;;;;23.32;58.37;99470.56;7313342;19;129563;-40
2023/01/14 06:45:52;;;;;;;17.42;1.75;;;;;;;23.27;58.02;99467.56;7315284;19;129015;-41
2023/01/14 06:48:17;;;;;;;26.25;2.60;;;;;;;23.16;58.28;99466.00;7312366;19;129856;-40
2023/01/14 06:50:43;;;;;;;16.63;1.57;;;;;;;23.11;58.79;99463.00;7314066;19;129609;-38
2023/01/14 06:53:08;;;;;;;24.50;2.40;;;;;;;23.09;58.46;99464.13;7314503;19;129558;-38
2023/01/14 06:55:34;;;;;;;22.80;2.13;;;;;;;23.03;59.00;99454.25;7314725;19;129374;-38
2023/01/14 06:57:59;;;;;;;17.43;1.70;;;;;;;23.16;58.11;99471.25;7312692;19;128988;-39
2023/01/14 07:00:25;;;;;;;15.00;1.65;;;;;;;23.20;58.38;99474.41;7313654;19;129929;-38
2023/01/14 07:02:51;;;;;;;21.48;2.10;;;;;;;23.29;58.43;99472.69;7309371;19;129683;-38
2023/01/14 07:05:17;;;;;;;13.50;1.40;;;;;;;23.38;58.16;99480.47;7309837;19;129669;-40
2023/01/14 07:07:45;;;;;;;14.53;1.43;;;;;;;23.40;57.99;99468.00;7313122;19;129336;-38
2023/01/14 07:10:14;;;;;;;18.77;1.75;;;;;;;23.46;57.50;99467.38;7303532;19;129839;-41
2023/01/14 07:12:44;;;;;;;32.22;3.22;;;;;;;23.54;57.68;99475.31;7309700;19;130417;-38
2023/01/14 07:15:10;;;;;;;42.55;4.60;;;;;;;23.55;57.53;99466.44;7307361;19;129257;-38
2023/01/14 07:17:36;;;;;;;20.97;1.90;;;;;;;23.62;56.73;99472.72;7312978;19;128999;-41
2023/01/14 07:20:02;;;;;;;12.95;1.40;;;;;;;23.70;56.87;99478.00;7311306;19;129480;-38
2023/01/14 07:22:27;;;;;;;35.35;3.13;;;;;;;23.72;56.58;99469.97;7310522;19;129860;-39
2023/01/14 07:24:52;;;;;;;16.40;1.77;;;;;;;23.74;56.43;99484.59;7311837;19;129349;-39
2023/01/14 07:27:18;;;;;;;20.77;2.13;;;;;;;23.75;56.36;99472.31;7312578;19;129953;-39
2023/01/14 07:29:43;;;;;;;16.57;1.67;;;;;;;23.74;56.70;99476.72;7308303;19;129249;-39
2023/01/14 07:32:09;;;;;;;22.43;2.30;;;;;;;23.71;56.70;99479.69;7311506;19;130342;-40
2023/01/14 07:34:34;;;;;;;31.77;3.17;;;;;;;23.65;57.05;99477.66;7308253;19;129656;-37
2023/01/14 07:36:59;;;;;;;13.93;1.27;;;;;;;23.57;57.56;99480.22;7311098;19;129206;-41
2023/01/14 07:39:25;;;;;;;22.27;2.20;;;;;;;23.44;57.97;99473.75;7309388;19;129075;-38
2023/01/14 07:41:50;;;;;;;23.97;2.60;;;;;;;23.37;57.94;99478.00;7308998;19;130942;-39
2023/01/14 07:44:23;;;;;;;15.02;1.55;;;;;;;23.24;58.68;99473.94;7311065;19;129366;-41
2023/01/14 07:46:54;;;;;;;23.42;2.20;;;;;;;23.26;58.55;99471.16;7309710;19;129473;-38
2023/01/14 07:49:20;;;;;;;15.65;1.55;;;;;;;23.28;57.93;99484.97;7308957;19;129287;-40
2023/01/14 07:51:45;;;;;;;20.77;1.95;;;;;;;23.28;57.98;99482.34;7308664;19;129746;-40
2023/01/14 07:54:11;;;;;;;25.20;2.85;;;;;;;23.30;58.56;99477.78;7308285;19;128966;-37
2023/01/14 07:56:36;;;;;;;47.95;4.25;;;;;;;23.30;58.09;99480.41;7308239;19;129579;-37
2023/01/14 07:59:01;;;;;;;12.23;1.20;;;;;;;23.25;57.71;99459.03;7312671;19;129526;-40
2023/01/14 08:01:27;;;;;;;38.47;3.47;;;;;;;23.38;58.24;99472.59;7305179;19;131103;-37
2023/01/14 08:03:52;;;;;;;25.00;2.63;;;;;;;23.52;57.95;99466.75;7308795;19;129573;-39
2023/01/14 08:06:17;;;;;;;15.67;1.57;;;;;;;23.51;57.46;99473.00;7310937;19;130489;-37
2023/01/14 08:08:43;;;;;;;20.05;2.05;;;;;;;23.59;57.33;99473.03;7308936;19;129088;-37
2023/01/14 08:11:08;;;;;;;27.33;2.70;;;;;;;23.67;57.40;99472.28;7310699;19;129635;-40
2023/01/14 08:13:33;;;;;;;13.67;1.60;;;;;;;23.70;56.52;99470.13;7304272;19;130029;-36
2023/01/14 08:16:00;;;;;;;7.28;1.05;;;;;;;23.75;56.51;99469.69;7310431;19;129234;-40
2023/01/14 08:18:26;;;;;;;59.35;6.25;;;;;;;23.83;56.28;99465.28;7305399;19;129750;-38
2023/01/14 08:21:06;;;;;;;9.93;1.23;;;;;;;23.92;55.99;99463.50;7309845;19;131008;-38
2023/01/14 08:23:33;;;;;;;61.17;6.50;;;;;;;23.87;56.48;99466.63;7304768;19;128973;-39
2023/01/14 08:26:06;;;;;;;;;;;;;;;23.79;56.42;99458.72;7309315;19;129208;-38
2023/01/14 08:28:32;;;;;;;11.82;1.38;;;;;;;23.84;57.03;99459.06;7310560;19;129434;-39
2023/01/14 08:31:04;;;;;;;21.43;2.07;;;;;;;23.69;57.06;99457.16;7308703;19;130363;-38
2023/01/14 08:33:31;;;;;;;23.70;2.20;;;;;;;23.56;57.38;99456.78;7306164;19;129700;-40
2023/01/14 08:36:06;;;;;;;19.55;2.10;;;;;;;23.43;57.50;99461.63;7308060;19;130160;-39
2023/01/14 08:38:32;;;;;;;12.98;1.65;;;;;;;23.37;58.51;99465.66;7302138;19;131449;-39
2023/01/14 08:40:59;;;;;;;20.60;2.33;;;;;;;23.35;58.03;99465.03;7305154;19;129340;-41
2023/01/14 08:43:24;;;;;;;31.23;2.92;;;;;;;23.29;58.07;99465.63;7306917;19;129074;-36
2023/01/14 08:45:50;;;;;;;29.77;3.03;;;;;;;23.33;58.07;99477.47;7304837;19;130141;-38
2023/01/14 08:48:15;;;;;;;29.77;3.57;;;;;;;23.21;58.38;99447.19;7302909;19;129881;-40
2023/01/14 08:50:40;;;;;;;26.47;3.07;;;;;;;23.41;58.28;99453.06;7305366;19;129321;-37
2023/01/14 08:53:06;;;;;;;32.30;3.37;;;;;;;23.41;57.91;99453.91;7303678;19;129219;-39
2023/01/14 08:55:31;;;;;;;27.87;2.97;;;;;;;23.48;57.43;99441.81;7305869;19;129125;-39
2023/01/14 08:57:57;;;;;;;20.30;2.20;;;;;;;23.62;57.33;99454.34;7299831;19;130188;-40
2023/01/14 09:00:23;;;;;;;21.95;2.30;;;;;;;23.56;56.93;99452.34;7307770;19;130298;-40
2023/01/14 09:02:48;;;;;;;20.87;2.03;;;;;;;23.71;56.83;99449.97;7304320;19;128966;-38
2023/01/14 09:05:14;;;;;;;71.30;8.53;;;;;;;23.77;55.92;99444.91;7305786;19;129475;-39
2023/01/14 09:18:37;;;;;;;88.20;10.55;;;;;;;23.75;55.36;99438.19;7300664;19;130978;-39
2023/01/14 09:21:03;;;;;;;30.60;3.35;;;;;;;23.77;55.17;99460.66;7304446;19;130073;-38
2023/01/14 09:23:28;;;;;;;27.37;3.23;;;;;;;23.73;55.27;99451.47;7301326;19;129122;-36
2023/01/14 09:25:54;;;;;;;21.17;2.53;;;;;;;23.66;55.14;99458.31;7304837;19;130544;-41
2023/01/14 09:28:19;;;;;;;28.60;3.20;;;;;;;23.59;55.22;99464.31;7308077;19;130887;-36
2023/01/14 09:30:46;;;;;;;60.80;6.77;;;;;;;23.47;55.14;99461.16;7305107;19;130810;-38
2023/01/14 09:33:11;;;;;;;39.70;4.82;;;;;;;23.26;56.04;99444.91;7310195;19;129565;-38
2023/01/14 09:35:37;;;;;;;20.90;3.07;;;;;;;23.29;56.28;99457.75;7310663;19;129982;-37
2023/01/14 09:38:02;;;;;;;64.10;6.50;;;;;;;23.20;56.12;99456.03;7311313;19;130255;-35
2023/01/14 09:40:27;;;;;;;27.63;3.30;;;;;;;23.15;57.06;99442.56;7306940;19;130699;-40
2023/01/14 09:42:53;;;;;;;36.25;4.28;;;;;;;23.18;56.61;99448.31;7304256;19;130113;-38
2023/01/14 09:45:31;;;;;;;35.20;3.80;;;;;;;23.18;56.25;99447.50;7301386;19;130166;-41
2023/01/14 09:48:09;;;;;;;21.13;2.50;;;;;;;23.28;56.24;99447.41;7311562;19;130128;-40
2023/01/14 09:50:50;;;;;;;39.30;4.55;;;;;;;23.43;55.74;99441.47;7307687;19;130757;-35
2023/01/14 09:53:49;;;;;;;35.70;4.18;;;;;;;23.42;55.51;99439.00;7308297;19;129254;-36
2023/01/14 09:56:19;;;;;;;31.00;3.55;;;;;;;23.48;47.91;99433.13;7308744;19;129847;-40
2023/01/14 09:58:51;;;;;;;35.70;4.53;;;;;;;23.48;46.91;99431.31;7298679;19;130393;-38
2023/01/14 10:01:27;;;;;;;19.30;2.45;;;;;;;23.47;47.80;99424.41;7311879;19;130356;-37
2023/01/14 10:04:05;;;;;;;27.00;3.85;;;;;;;23.40;48.44;99438.31;7306249;19;129557;-37
2023/01/14 10:06:32;;;;;;;29.75;3.70;;;;;;;23.35;49.09;99428.31;7310571;19;129631;-41
2023/01/14 10:09:05;;;;;;;29.52;3.85;;;;;;;23.29;49.73;99418.41;7302251;19;130345;-37
2023/01/14 10:11:37;;;;;;;44.67;5.13;;;;;;;23.20;49.82;99416.69;7308237;19;129363;-39
2023/01/14 10:14:11;;;;;;;32.47;4.45;;;;;;;23.14;50.87;99414.66;7308397;19;130149;-38
2023/01/14 10:16:43;;;;;;;25.73;3.67;;;;;;;23.12;50.54;99414.03;7300930;19;129658;-37
2023/01/14 10:19:18;;;;;;;42.63;4.68;;;;;;;23.06;51.87;99401.50;7308080;19;130955;-38
2023/01/14 10:21:58;;;;;;;45.22;5.43;;;;;;;23.00;52.09;99386.41;7300757;19;130994;-37
2023/01/14 10:24:23;;;;;;;28.13;3.40;;;;;;;22.96;52.69;99393.75;7310346;19;130634;-36
2023/01/14 10:26:50;;;;;;;121.07;12.77;;;;;;;22.90;53.15;99380.44;7304179;19;131575;-36
2023/01/14 10:29:19;;;;;;;27.98;3.47;;;;;;;22.86;53.87;99379.91;7310479;19;129577;-38
2023/01/14 10:31:54;;;;;;;13.63;2.10;;;;;;;22.84;53.89;99373.19;7308682;19;129449;-35
2023/01/14 10:34:26;;;;;;;19.33;2.70;;;;;;;22.74;54.25;99367.22;7309003;19;130363;-38
2023/01/14 10:36:51;;;;;;;14.77;2.53;;;;;;;22.73;54.66;99370.78;7307573;19;129167;-39
2023/01/14 10:39:17;;;;;;;38.50;4.53;;;;;;;22.60;55.73;99352.00;7309708;19;129628;-38
2023/01/14 10:41:49;;;;;;;27.70;3.17;;;;;;;22.67;55.80;99360.91;7303433;19;130841;-37
2023/01/14 10:44:23;;;;;;;28.30;3.83;;;;;;;22.65;55.54;99363.69;7310403;19;129178;-38
2023/01/14 10:46:49;;;;;;;37.35;4.28;;;;;;;22.63;56.04;99356.94;7303012;19;130414;-38
2023/01/14 10:49:22;;;;;;;27.47;3.33;;;;;;;22.60;56.60;99346.78;7309150;19;129071;-39
2023/01/14 10:51:50;;;;;;;49.35;4.82;;;;;;;22.58;56.12;99348.72;7309860;19;130026;-35
2023/01/14 10:54:22;;;;;;;10.77;1.65;;;;;;;22.55;56.64;99328.06;7313221;19;129467;-38
2023/01/14 10:56:57;;;;;;;38.67;4.03;;;;;;;22.51;57.12;99329.31;7310030;19;131088;-35
2023/01/14 10:59:29;;;;;;;19.80;2.60;;;;;;;22.50;57.53;99325.03;7311452;19;129163;-39
2023/01/14 11:01:55;;;;;;;22.17;3.20;;;;;;;22.49;57.53;99324.25;7310813;19;129333;-38
2023/01/14 11:04:26;;;;;;;61.57;7.73;;;;;;;22.49;58.09;99305.91;7310139;19;129466;-36
2023/01/14 11:06:52;;;;;;;23.13;2.72;;;;;;;22.50;57.50;99302.28;7308231;19;129307;-40
2023/01/14 11:09:29;;;;;;;16.13;2.30;;;;;;;22.46;58.48;99303.56;7309925;19;131552;-41
2023/01/14 11:11:55;;;;;;;15.37;2.20;;;;;;;22.48;57.56;99296.38;7310279;19;131869;-39
2023/01/14 11:14:23;;;;;;;29.67;3.40;;;;;;;22.48;59.12;99295.56;7310930;19;129529;-40
2023/01/14 11:16:49;;;;;;;18.83;2.28;;;;;;;22.48;59.67;99295.56;7311407;19;130598;-38
2023/01/14 11:19:14;;;;;;;20.17;2.37;;;;;;;22.51;58.55;99295.28;7311175;19;129566;-35
2023/01/14 11:21:41;;;;;;;23.77;2.70;;;;;;;22.50;59.29;99293.59;7311146;19;129709;-39
2023/01/14 11:24:18;;;;;;;21.38;2.72;;;;;;;22.53;61.14;99280.22;7309707;19;129341;-39
2023/01/14 11:26:44;;;;;;;24.77;2.75;;;;;;;22.56;58.22;99272.09;7310965;19;130429;-40
2023/01/14 11:29:28;;;;;;;30.90;4.17;;;;;;;22.59;61.02;99263.91;7308571;19;129346;-37
2023/01/14 11:32:06;;;;;;;6.63;1.42;;;;;;;22.57;60.55;99276.34;7311098;19;129322;-35
2023/01/14 11:34:35;;;;;;;14.40;2.00;;;;;;;22.58;59.07;99264.88;7309068;19;129204;-40
2023/01/14 11:37:06;;;;;;;26.85;3.63;;;;;;;22.54;60.01;99255.69;7310567;19;130578;-40
2023/01/14 11:39:33;;;;;;;22.20;2.78;;;;;;;22.57;59.00;99247.53;7310954;19;130916;-38
2023/01/14 11:42:02;;;;;;;30.25;3.50;;;;;;;22.45;59.34;99230.38;7308892;19;129707;-38
2023/01/14 11:44:28;;;;;;;16.00;2.13;;;;;;;22.54;59.83;99232.13;7311794;19;128923;-36
2023/01/14 11:47:15;;;;;;;10.85;1.73;;;;;;;22.61;60.85;99238.38;7307737;19;131065;-35
2023/01/14 11:49:40;;;;;;;16.67;2.13;;;;;;;22.59;58.84;99232.47;7306942;19;130831;-38
2023/01/14 11:52:17;;;;;;;37.60;4.57;;;;;;;22.61;60.82;99226.09;7305022;19;131895;-39
2023/01/14 11:54:45;;;;;;;27.27;2.85;;;;;;;22.61;59.91;99212.97;7312116;19;129530;-39